Time;durP1;ratioP1;P1;durP2;ratioP2;P2;SDS_P1;SDS_P2;PMS_P1;PMS_P2;Temp;Humidity;BMP_temperature;BMP_pressure;BME280_temperature;BME280_humidity;BME280_pressure;Samples;Min_cycle;Max_cycle;Signal;HPM_P1;HPM_P2
2021/06/09 00:01:00;;;;;;;12.27;10.98;;;15.40;91.90;;;;;;5122460;27;20409;-83
2021/06/09 00:03:26;;;;;;;11.75;10.55;;;15.40;92.00;;;;;;5100498;28;20037;-82
2021/06/09 00:05:52;;;;;;;14.95;13.05;;;15.40;92.10;;;;;;5108840;27;20069;-82
2021/06/09 00:08:19;;;;;;;12.50;11.18;;;15.30;92.00;;;;;;5119931;28;20479;-82
2021/06/09 00:10:54;;;;;;;13.63;12.20;;;15.30;92.20;;;;;;5111223;27;20051;-84
2021/06/09 00:13:21;;;;;;;12.13;10.77;;;15.30;92.30;;;;;;5121597;27;20036;-82
2021/06/09 00:15:48;;;;;;;11.40;10.27;;;15.30;92.30;;;;;;5119119;27;20043;-82
2021/06/09 00:18:14;;;;;;;13.45;10.93;;;15.20;92.50;;;;;;5081082;28;20402;-81
2021/06/09 00:20:40;;;;;;;13.00;10.43;;;15.20;92.50;;;;;;5125178;27;20031;-82
2021/06/09 00:23:09;;;;;;;11.88;10.00;;;15.20;92.50;;;;;;5114731;27;20051;-82
2021/06/09 00:25:35;;;;;;;15.30;11.10;;;15.20;92.50;;;;;;5101322;28;20405;-82
2021/06/09 00:28:05;;;;;;;11.65;10.35;;;15.20;92.60;;;;;;5131005;27;20058;-83
2021/06/09 00:30:35;;;;;;;12.88;11.57;;;15.10;92.60;;;;;;5127224;27;20031;-82
2021/06/09 00:33:03;;;;;;;11.55;10.10;;;15.10;92.70;;;;;;5108331;27;20477;-82
2021/06/09 00:35:30;;;;;;;15.07;13.43;;;15.10;92.70;;;;;;5140867;27;20031;-82
2021/06/09 00:37:56;;;;;;;14.35;12.82;;;15.00;92.60;;;;;;5128173;27;20393;-81
2021/06/09 00:40:24;;;;;;;13.48;12.07;;;15.00;92.70;;;;;;5126552;27;20045;-81
2021/06/09 00:43:14;;;;;;;12.48;11.18;;;14.90;92.90;;;;;;5110905;27;20461;-82
2021/06/09 00:45:42;;;;;;;13.57;11.40;;;14.90;93.10;;;;;;5128978;27;20091;-82
2021/06/09 00:48:09;;;;;;;15.48;13.25;;;14.90;93.00;;;;;;5146948;27;20035;-83
2021/06/09 00:50:36;;;;;;;15.13;13.52;;;15.00;93.10;;;;;;5128887;27;20034;-82
2021/06/09 00:55:50;;;;;;;17.10;14.23;;;15.00;93.20;;;;;;5127698;27;20058;-82
2021/06/09 00:58:18;;;;;;;16.42;12.55;;;15.00;93.40;;;;;;5141663;27;20035;-82
2021/06/09 01:00:44;;;;;;;17.75;14.00;;;15.00;93.40;;;;;;5125120;27;20031;-82
2021/06/09 01:03:10;;;;;;;16.92;14.90;;;15.00;93.30;;;;;;5105090;27;20039;-82
2021/06/09 01:05:36;;;;;;;18.30;15.45;;;15.00;93.30;;;;;;5129949;27;20054;-82
2021/06/09 01:08:22;;;;;;;16.35;13.30;;;14.90;93.30;;;;;;5131490;27;20039;-83
2021/06/09 01:10:50;;;;;;;17.60;15.13;;;15.00;93.50;;;;;;5124485;27;20046;-82
2021/06/09 01:13:24;;;;;;;17.17;15.38;;;14.90;93.60;;;;;;5142340;27;20530;-81
2021/06/09 01:15:53;;;;;;;15.02;13.43;;;14.90;93.70;;;;;;5123082;27;20037;-82
2021/06/09 01:18:20;;;;;;;16.55;13.02;;;14.90;93.50;;;;;;5093492;27;20050;-82
2021/06/09 01:20:47;;;;;;;15.60;13.90;;;14.90;93.50;;;;;;5138130;27;20038;-82
2021/06/09 01:23:17;;;;;;;16.33;14.02;;;15.00;93.50;;;;;;5127112;27;20047;-83
2021/06/09 01:25:43;;;;;;;17.40;15.18;;;14.90;93.50;;;;;;5131258;27;20031;-82
2021/06/09 01:28:09;;;;;;;16.13;14.43;;;14.90;93.60;;;;;;5110647;27;20047;-83
2021/06/09 01:30:36;;;;;;;17.40;14.40;;;14.90;93.60;;;;;;5111872;27;20058;-82
2021/06/09 01:33:04;;;;;;;17.40;15.40;;;15.00;93.60;;;;;;5112171;27;20155;-82
2021/06/09 01:35:31;;;;;;;19.00;16.90;;;14.90;93.70;;;;;;5148992;27;20057;-82
2021/06/09 01:37:57;;;;;;;20.63;16.85;;;14.90;93.60;;;;;;5129723;27;20651;-82
2021/06/09 01:40:25;;;;;;;20.63;16.98;;;14.90;93.60;;;;;;5144425;27;20485;-83
2021/06/09 01:42:52;;;;;;;16.33;14.63;;;14.80;93.70;;;;;;5108136;27;20042;-83
2021/06/09 01:45:38;;;;;;;16.33;14.20;;;14.80;93.80;;;;;;5129801;27;20041;-82
2021/06/09 01:48:07;;;;;;;14.55;13.00;;;14.70;93.80;;;;;;5110026;27;20111;-83
2021/06/09 01:50:35;;;;;;;17.02;15.32;;;14.80;93.90;;;;;;5124466;27;20035;-83
2021/06/09 01:53:03;;;;;;;14.63;13.13;;;14.80;93.80;;;;;;5143266;27;20034;-82
2021/06/09 01:55:31;;;;;;;18.35;16.45;;;14.80;93.90;;;;;;5128581;27;20121;-82
2021/06/09 01:58:02;;;;;;;15.68;13.77;;;14.70;93.80;;;;;;5111700;27;20109;-83
2021/06/09 02:00:40;;;;;;;18.42;16.20;;;14.70;93.80;;;;;;5127004;27;20043;-83
2021/06/09 02:03:06;;;;;;;20.27;17.13;;;14.70;93.80;;;;;;5124573;27;20503;-83
2021/06/09 02:05:34;;;;;;;15.23;13.63;;;14.60;93.80;;;;;;5144149;27;20043;-83
2021/06/09 02:08:04;;;;;;;16.45;14.70;;;14.50;93.80;;;;;;5105038;27;20054;-82
2021/06/09 02:10:30;;;;;;;18.10;15.98;;;14.50;94.00;;;;;;5126872;27;20037;-82
2021/06/09 02:12:59;;;;;;;19.05;16.02;;;14.40;94.10;;;;;;5121860;27;20039;-82
2021/06/09 02:15:26;;;;;;;17.13;15.27;;;14.40;94.00;;;;;;5123432;27;20060;-83
2021/06/09 02:18:08;;;;;;;19.90;16.90;;;14.40;94.10;;;;;;5139183;27;20083;-82
2021/06/09 02:20:36;;;;;;;17.77;14.32;;;14.40;94.20;;;;;;5122278;27;20042;-82
2021/06/09 02:23:02;;;;;;;20.38;16.33;;;14.40;94.00;;;;;;5140876;27;20923;-82
2021/06/09 02:25:29;;;;;;;14.40;12.30;;;14.30;94.20;;;;;;5079057;27;20451;-82
2021/06/09 02:27:55;;;;;;;14.65;12.75;;;14.30;94.20;;;;;;5105837;27;20107;-82
2021/06/09 02:30:21;;;;;;;17.85;13.73;;;14.30;94.30;;;;;;5146235;27;20035;-82
2021/06/09 02:33:07;;;;;;;15.75;13.82;;;14.20;94.40;;;;;;5115577;27;20042;-82
2021/06/09 02:35:42;;;;;;;16.58;13.65;;;14.20;94.30;;;;;;5099377;27;20107;-83
2021/06/09 02:38:09;;;;;;;16.23;13.55;;;14.20;94.40;;;;;;5123898;27;20053;-82
2021/06/09 02:40:38;;;;;;;15.68;12.98;;;14.20;94.30;;;;;;5116718;27;20634;-83
2021/06/09 02:43:05;;;;;;;13.00;11.63;;;14.10;94.30;;;;;;5120731;27;20084;-82
2021/06/09 02:45:31;;;;;;;15.27;13.43;;;14.10;94.30;;;;;;5103913;27;20038;-82
2021/06/09 02:48:10;;;;;;;14.88;13.38;;;14.00;94.40;;;;;;5146936;27;20027;-83
2021/06/09 02:50:43;;;;;;;16.02;14.35;;;14.00;94.40;;;;;;5141139;27;20039;-83
2021/06/09 02:53:38;;;;;;;18.35;15.55;;;14.00;94.40;;;;;;5108882;27;20480;-83
2021/06/09 02:56:32;;;;;;;22.88;17.88;;;13.90;94.40;;;;;;5146742;27;20038;-83
2021/06/09 02:59:07;;;;;;;20.65;17.50;;;13.90;94.70;;;;;;5138555;27;20035;-83
2021/06/09 03:02:01;;;;;;;16.73;14.32;;;13.80;94.60;;;;;;5125021;27;20133;-82
2021/06/09 03:04:45;;;;;;;17.35;15.48;;;13.80;95.00;;;;;;5121003;27;20031;-82
2021/06/09 03:07:37;;;;;;;18.23;15.15;;;13.80;94.50;;;;;;5141570;27;20748;-82
2021/06/09 03:10:27;;;;;;;19.30;16.55;;;13.70;94.40;;;;;;5102457;27;20561;-83
2021/06/09 03:13:05;;;;;;;21.83;18.02;;;13.70;94.40;;;;;;5125660;27;20069;-80
2021/06/09 03:16:00;;;;;;;15.43;13.73;;;13.70;94.60;;;;;;5122512;27;20474;-81
2021/06/09 03:18:40;;;;;;;16.60;14.18;;;13.70;95.30;;;;;;5129688;27;20444;-80
2021/06/09 03:21:18;;;;;;;15.93;14.23;;;13.70;94.90;;;;;;5103218;27;20051;-80
2021/06/09 03:24:03;;;;;;;14.73;13.13;;;13.70;95.10;;;;;;5118187;27;20096;-80
2021/06/09 03:27:07;;;;;;;17.75;14.68;;;13.70;94.90;;;;;;5111556;27;20042;-81
2021/06/09 03:29:54;;;;;;;16.75;13.43;;;13.70;94.80;;;;;;5124658;27;20039;-81
2021/06/09 03:32:54;;;;;;;15.80;13.20;;;13.70;95.00;;;;;;5139841;27;20680;-80
2021/06/09 03:35:29;;;;;;;17.88;15.00;;;13.70;94.90;;;;;;5125559;27;20710;-81
2021/06/09 03:37:57;;;;;;;14.23;12.27;;;13.60;94.90;;;;;;5116870;27;20103;-80
2021/06/09 03:40:28;;;;;;;16.90;12.90;;;13.60;95.00;;;;;;5122261;27;20045;-80
2021/06/09 03:42:59;;;;;;;16.80;14.00;;;13.70;95.00;;;;;;5136963;27;20070;-80
2021/06/09 03:45:31;;;;;;;14.98;12.95;;;13.70;95.00;;;;;;5143537;27;20092;-80
2021/06/09 03:48:01;;;;;;;18.52;15.82;;;13.70;94.90;;;;;;5138333;27;20532;-80
2021/06/09 03:50:31;;;;;;;15.15;12.38;;;13.70;95.00;;;;;;5112095;27;20117;-80
2021/06/09 03:53:02;;;;;;;17.13;14.38;;;13.70;95.00;;;;;;5145905;27;20034;-80
2021/06/09 03:55:35;;;;;;;16.13;14.43;;;13.70;95.10;;;;;;5113473;27;20083;-79
2021/06/09 03:58:16;;;;;;;17.92;15.00;;;13.80;95.10;;;;;;5121642;27;20035;-79
2021/06/09 04:00:45;;;;;;;22.23;17.17;;;13.80;95.10;;;;;;5135868;27;20125;-79
2021/06/09 04:03:12;;;;;;;21.92;17.33;;;13.80;95.50;;;;;;5125557;27;20039;-80
2021/06/09 04:05:42;;;;;;;19.85;16.25;;;13.80;95.30;;;;;;5105227;27;20648;-80
2021/06/09 04:08:11;;;;;;;22.58;15.98;;;13.80;95.30;;;;;;5123923;27;20106;-79
2021/06/09 04:10:39;;;;;;;16.02;14.32;;;13.80;95.30;;;;;;5133480;27;20657;-78
2021/06/09 04:13:05;;;;;;;17.88;15.63;;;13.80;95.40;;;;;;5110650;27;20111;-79
2021/06/09 04:15:32;;;;;;;18.88;16.90;;;13.80;95.80;;;;;;5139627;27;20073;-79
2021/06/09 04:18:00;;;;;;;17.20;15.25;;;13.90;95.70;;;;;;5112069;27;20039;-79
2021/06/09 04:20:29;;;;;;;20.02;17.02;;;13.90;95.70;;;;;;5114853;27;20063;-81
2021/06/09 04:22:56;;;;;;;20.52;16.38;;;13.90;95.60;;;;;;5102578;27;20063;-79
2021/06/09 04:25:23;;;;;;;17.92;15.82;;;14.00;95.70;;;;;;5123066;27;20059;-79
2021/06/09 04:27:51;;;;;;;17.60;15.35;;;14.00;95.80;;;;;;5118849;27;20439;-79
2021/06/09 04:30:19;;;;;;;17.55;14.98;;;14.00;95.70;;;;;;5146556;27;20146;-80
2021/06/09 04:33:02;;;;;;;17.27;14.90;;;14.10;95.60;;;;;;5107812;27;20040;-82
2021/06/09 04:35:39;;;;;;;14.68;13.00;;;14.10;95.80;;;;;;5128765;27;20041;-83
2021/06/09 04:38:10;;;;;;;13.93;12.35;;;14.20;95.70;;;;;;5144374;27;20043;-82
2021/06/09 04:40:37;;;;;;;17.55;13.98;;;14.20;95.60;;;;;;5117777;27;20063;-82
2021/06/09 04:43:03;;;;;;;16.48;13.95;;;14.30;95.50;;;;;;5112413;27;20820;-83
2021/06/09 04:45:32;;;;;;;15.68;13.98;;;14.40;95.50;;;;;;5086187;27;21242;-83
2021/06/09 04:47:58;;;;;;;14.03;12.43;;;14.50;95.40;;;;;;5128962;27;20498;-82
2021/06/09 04:50:32;;;;;;;14.68;13.18;;;14.50;95.30;;;;;;5116695;27;20243;-79
2021/06/09 04:53:12;;;;;;;15.80;13.95;;;14.60;95.30;;;;;;5140649;27;20037;-79
2021/06/09 04:55:47;;;;;;;14.20;12.57;;;14.70;95.20;;;;;;5110805;27;20500;-79
2021/06/09 04:58:15;;;;;;;19.05;15.02;;;14.70;95.00;;;;;;5144172;27;20055;-79
2021/06/09 05:00:43;;;;;;;17.83;14.90;;;14.90;95.00;;;;;;5122511;27;20485;-79
2021/06/09 05:03:09;;;;;;;15.75;13.00;;;14.90;95.00;;;;;;5107240;27;20051;-79
2021/06/09 05:05:35;;;;;;;14.77;13.30;;;15.00;94.90;;;;;;5104488;27;20035;-79
2021/06/09 05:08:03;;;;;;;15.07;12.52;;;15.10;94.90;;;;;;5105848;27;20039;-79
2021/06/09 05:10:30;;;;;;;14.18;12.10;;;15.20;94.70;;;;;;5111723;27;20062;-79
2021/06/09 05:13:19;;;;;;;11.32;10.18;;;15.30;94.40;;;;;;5103462;27;20035;-79
2021/06/09 05:15:53;;;;;;;10.50;8.80;;;15.40;94.10;;;;;;5138009;27;20101;-79
2021/06/09 05:18:26;;;;;;;12.60;8.98;;;15.50;93.80;;;;;;5122983;27;20547;-79
2021/06/09 05:20:53;;;;;;;9.90;8.18;;;15.60;93.40;;;;;;5141367;27;20039;-79
2021/06/09 05:23:32;;;;;;;10.07;8.70;;;15.70;93.20;;;;;;5103954;27;20038;-79
2021/06/09 05:26:00;;;;;;;9.48;8.48;;;15.80;92.80;;;;;;5124355;27;20027;-80
2021/06/09 05:28:34;;;;;;;11.15;8.57;;;15.80;92.60;;;;;;5126458;27;20057;-79
2021/06/09 05:31:02;;;;;;;9.65;8.65;;;16.00;92.60;;;;;;5127972;27;20432;-80
2021/06/09 05:33:32;;;;;;;10.80;9.70;;;16.00;92.50;;;;;;5129621;27;20031;-79
2021/06/09 05:36:00;;;;;;;11.18;9.30;;;16.10;92.70;;;;;;5123596;27;20045;-80
2021/06/09 05:38:30;;;;;;;9.85;8.48;;;16.20;92.60;;;;;;5111906;27;20031;-80
2021/06/09 05:41:01;;;;;;;9.40;8.07;;;16.30;92.60;;;;;;5107860;27;20398;-79
2021/06/09 05:43:32;;;;;;;10.20;7.63;;;16.40;92.40;;;;;;5126953;27;20074;-80
2021/06/09 05:46:09;;;;;;;8.65;7.03;;;16.50;92.00;;;;;;5104437;27;20041;-79
2021/06/09 05:48:43;;;;;;;7.63;6.40;;;16.60;91.70;;;;;;5109012;27;20114;-80
2021/06/09 05:51:11;;;;;;;9.60;6.40;;;16.70;91.60;;;;;;5137486;27;20446;-83
2021/06/09 05:53:38;;;;;;;7.18;5.75;;;16.80;91.40;;;;;;5122417;27;20094;-83
2021/06/09 05:56:05;;;;;;;7.60;6.13;;;16.80;91.10;;;;;;5122597;27;20039;-82
2021/06/09 05:58:32;;;;;;;6.65;5.05;;;16.90;90.80;;;;;;5108796;27;20089;-82
2021/06/09 06:01:07;;;;;;;9.68;6.63;;;17.00;90.80;;;;;;5117156;27;20039;-74
2021/06/09 06:03:34;;;;;;;7.53;6.72;;;17.10;90.60;;;;;;5133056;27;20035;-74
2021/06/09 06:06:04;;;;;;;7.50;6.40;;;17.20;90.60;;;;;;5105328;27;20126;-74
2021/06/09 06:08:32;;;;;;;;;;;17.30;90.50;;;;;;5119268;27;20067;-74
2021/06/09 06:11:03;;;;;;;12.07;7.90;;;17.40;90.50;;;;;;5141190;27;19945;-74
2021/06/09 06:13:35;;;;;;;9.90;7.82;;;17.50;90.60;;;;;;5129977;27;20401;-74
2021/06/09 06:16:03;;;;;;;10.40;8.10;;;17.60;90.30;;;;;;5145529;27;20102;-74
2021/06/09 06:18:50;;;;;;;10.23;8.10;;;17.70;90.30;;;;;;5110045;27;20252;-74
2021/06/09 06:21:18;;;;;;;9.48;8.45;;;17.80;90.10;;;;;;5115755;27;20478;-74
2021/06/09 06:23:44;;;;;;;10.18;8.30;;;17.90;90.00;;;;;;5106324;27;20040;-74
2021/06/09 06:26:21;;;;;;;11.70;8.40;;;18.00;89.60;;;;;;5124547;27;20126;-74
2021/06/09 06:28:49;;;;;;;9.52;8.52;;;18.10;89.10;;;;;;5098221;27;20460;-74
2021/06/09 06:31:26;;;;;;;10.27;7.63;;;18.20;88.70;;;;;;5127921;27;20043;-74
2021/06/09 06:33:54;;;;;;;9.43;7.88;;;18.30;88.40;;;;;;5146173;27;20034;-74
2021/06/09 06:36:23;;;;;;;8.95;8.05;;;18.40;88.20;;;;;;5111103;27;20050;-74
2021/06/09 06:38:50;;;;;;;11.30;9.07;;;18.50;88.10;;;;;;5093824;27;20490;-74
2021/06/09 06:41:17;;;;;;;9.10;7.78;;;18.60;87.90;;;;;;5103386;27;20091;-74
2021/06/09 06:43:43;;;;;;;8.80;7.45;;;18.70;88.10;;;;;;5146853;27;20518;-74
2021/06/09 06:46:19;;;;;;;10.45;8.70;;;18.90;88.40;;;;;;5124449;27;20035;-74
2021/06/09 06:48:48;;;;;;;9.32;8.43;;;19.00;88.40;;;;;;5137120;27;20528;-74
2021/06/09 06:51:16;;;;;;;9.40;7.95;;;19.10;87.70;;;;;;5128054;27;20053;-74
2021/06/09 06:53:45;;;;;;;9.82;8.90;;;19.30;87.60;;;;;;5120805;27;20035;-75
2021/06/09 06:56:13;;;;;;;8.98;8.07;;;19.40;87.40;;;;;;5120926;27;20066;-74
2021/06/09 06:58:40;;;;;;;9.50;8.20;;;19.50;86.80;;;;;;5122665;27;20070;-74
2021/06/09 07:01:07;;;;;;;10.38;9.27;;;19.70;86.90;;;;;;5144011;27;20045;-74
2021/06/09 07:03:37;;;;;;;10.50;9.45;;;19.80;86.80;;;;;;5137989;27;20054;-74
2021/06/09 07:06:07;;;;;;;10.93;9.82;;;19.90;86.70;;;;;;5136590;27;20131;-75
2021/06/09 07:08:37;;;;;;;10.27;9.27;;;20.10;87.30;;;;;;5145557;27;20039;-74
2021/06/09 07:11:05;;;;;;;9.07;7.65;;;20.30;86.80;;;;;;5139626;27;20031;-74
2021/06/09 07:13:39;;;;;;;9.10;8.20;;;20.40;86.70;;;;;;5105773;27;20361;-75
2021/06/09 07:16:06;;;;;;;9.25;8.10;;;20.50;86.00;;;;;;5080209;27;20034;-74
2021/06/09 07:18:35;;;;;;;10.45;9.18;;;20.60;85.40;;;;;;5141062;27;20042;-74
2021/06/09 07:21:02;;;;;;;9.90;8.85;;;20.80;84.60;;;;;;5125974;27;20039;-75
2021/06/09 07:23:34;;;;;;;10.57;9.40;;;20.90;83.10;;;;;;5140672;27;20164;-74
2021/06/09 07:26:01;;;;;;;11.30;9.15;;;21.00;82.70;;;;;;5105215;27;20087;-74
2021/06/09 07:28:30;;;;;;;9.90;8.93;;;21.10;81.70;;;;;;5091141;28;20044;-74
2021/06/09 07:30:59;;;;;;;9.98;8.65;;;21.20;81.50;;;;;;5087989;27;20301;-76
2021/06/09 07:33:25;;;;;;;12.57;11.15;;;21.30;81.40;;;;;;5117548;27;20066;-75
2021/06/09 07:35:53;;;;;;;10.70;9.70;;;21.40;81.90;;;;;;5097729;27;20510;-75
2021/06/09 07:38:25;;;;;;;11.13;10.13;;;21.50;81.80;;;;;;5117947;27;20040;-75
2021/06/09 07:40:57;;;;;;;12.13;9.82;;;21.70;80.50;;;;;;5123123;27;20481;-75
2021/06/09 07:43:37;;;;;;;13.65;10.10;;;21.80;81.00;;;;;;5113625;27;20114;-75
2021/06/09 07:46:26;;;;;;;11.57;10.25;;;22.00;80.50;;;;;;5107036;27;20047;-75
2021/06/09 07:49:01;;;;;;;12.77;11.57;;;22.10;79.20;;;;;;5120089;27;20129;-75
2021/06/09 07:51:31;;;;;;;12.70;10.88;;;22.20;78.00;;;;;;5123903;27;20032;-76
2021/06/09 07:54:02;;;;;;;12.02;10.32;;;22.30;77.40;;;;;;5114083;27;20035;-76
2021/06/09 07:56:33;;;;;;;11.50;10.40;;;22.30;78.30;;;;;;5119649;27;20042;-76
2021/06/09 07:59:07;;;;;;;11.32;10.30;;;22.40;77.00;;;;;;5119563;27;20042;-75
2021/06/09 08:01:39;;;;;;;12.35;11.05;;;22.50;77.10;;;;;;5117294;28;20559;-75
2021/06/09 08:04:05;;;;;;;12.38;11.15;;;22.60;75.70;;;;;;5119290;27;20074;-75
2021/06/09 08:06:34;;;;;;;12.13;10.93;;;22.70;76.40;;;;;;5078366;28;20509;-76
2021/06/09 08:09:00;;;;;;;16.02;14.32;;;22.80;76.10;;;;;;5110871;28;20035;-76
2021/06/09 08:11:31;;;;;;;16.05;13.10;;;23.00;74.90;;;;;;5123580;27;20039;-76
2021/06/09 08:14:00;;;;;;;14.18;12.77;;;23.00;74.40;;;;;;5116980;27;20474;-75
2021/06/09 08:16:32;;;;;;;14.75;13.40;;;23.00;74.00;;;;;;5104552;27;20035;-76
2021/06/09 08:19:05;;;;;;;15.52;13.93;;;23.10;74.60;;;;;;5107657;27;20088;-76
2021/06/09 08:21:33;;;;;;;14.68;13.38;;;23.20;74.50;;;;;;5120782;27;20056;-76
2021/06/09 08:23:59;;;;;;;15.57;13.95;;;23.40;75.20;;;;;;5096563;28;20059;-76
2021/06/09 08:26:28;;;;;;;15.27;13.70;;;23.60;75.60;;;;;;5118421;27;20043;-76
2021/06/09 08:28:56;;;;;;;17.63;15.95;;;23.60;74.40;;;;;;5113905;27;20044;-75
2021/06/09 08:31:31;;;;;;;16.63;15.07;;;23.80;74.20;;;;;;5116973;27;20047;-75
2021/06/09 08:34:00;;;;;;;16.60;14.90;;;23.90;72.90;;;;;;5120883;27;20042;-75
2021/06/09 08:36:27;;;;;;;18.10;16.33;;;23.90;72.10;;;;;;5119999;27;20036;-75
2021/06/09 08:39:04;;;;;;;17.08;15.55;;;24.00;72.90;;;;;;5093352;28;20039;-75
2021/06/09 08:41:34;;;;;;;18.70;16.92;;;24.10;73.10;;;;;;5095917;28;20052;-75
2021/06/09 08:44:03;;;;;;;17.83;16.17;;;24.30;70.50;;;;;;5118240;27;20039;-76
2021/06/09 08:46:30;;;;;;;17.42;15.93;;;24.20;70.00;;;;;;5121530;27;20035;-75
2021/06/09 08:49:01;;;;;;;17.60;16.00;;;24.20;70.80;;;;;;5122065;27;20042;-75
2021/06/09 08:51:34;;;;;;;18.27;16.60;;;24.30;70.40;;;;;;5129422;27;20409;-75
2021/06/09 08:54:03;;;;;;;17.77;15.98;;;24.40;72.00;;;;;;5105758;27;20039;-75
2021/06/09 08:56:31;;;;;;;16.30;14.77;;;24.50;69.20;;;;;;5115404;27;20448;-76
2021/06/09 08:59:00;;;;;;;17.63;15.95;;;24.50;68.10;;;;;;5111782;27;20563;-76
2021/06/09 09:01:31;;;;;;;17.73;16.02;;;24.60;68.60;;;;;;5120534;27;20038;-76
2021/06/09 09:04:04;;;;;;;16.13;14.63;;;24.50;68.30;;;;;;5115840;27;20039;-76
2021/06/09 09:06:31;;;;;;;17.25;13.77;;;24.60;69.00;;;;;;5121778;27;20035;-76
2021/06/09 09:08:57;;;;;;;17.15;15.55;;;24.70;68.90;;;;;;5125786;27;20035;-74
2021/06/09 09:11:24;;;;;;;16.90;15.18;;;24.80;69.40;;;;;;5126999;27;20038;-74
2021/06/09 09:13:50;;;;;;;16.73;15.13;;;25.00;65.60;;;;;;5124862;27;20043;-73
2021/06/09 09:16:16;;;;;;;15.80;14.40;;;25.10;67.90;;;;;;5119317;27;20047;-75
2021/06/09 09:18:45;;;;;;;14.85;13.45;;;25.20;67.60;;;;;;5123784;27;20096;-74
2021/06/09 09:21:31;;;;;;;14.95;13.55;;;25.10;66.30;;;;;;5125539;27;20072;-74
2021/06/09 09:24:04;;;;;;;16.38;14.73;;;24.90;66.30;;;;;;5122448;27;20035;-74
2021/06/09 09:26:32;;;;;;;16.95;15.27;;;24.70;68.70;;;;;;5126151;27;20417;-74
2021/06/09 09:29:27;;;;;;;14.70;13.40;;;24.70;68.50;;;;;;5121648;27;20553;-73
2021/06/09 09:32:03;;;;;;;15.38;13.98;;;24.90;64.10;;;;;;5099493;27;20047;-74
2021/06/09 09:34:40;;;;;;;13.95;12.65;;;25.10;65.40;;;;;;5116185;27;20039;-74
2021/06/09 09:37:24;;;;;;;14.02;12.55;;;25.20;66.00;;;;;;5118975;27;20050;-74
2021/06/09 09:40:14;;;;;;;15.38;13.98;;;25.40;63.50;;;;;;5128057;27;20119;-73
2021/06/09 09:42:42;;;;;;;14.73;13.25;;;25.50;63.00;;;;;;5110070;27;20032;-74
2021/06/09 09:45:18;;;;;;;13.40;12.10;;;25.60;62.70;;;;;;5098712;27;20060;-74
2021/06/09 09:48:04;;;;;;;14.02;12.65;;;25.60;61.50;;;;;;5114515;27;20601;-75
2021/06/09 09:50:33;;;;;;;13.57;12.30;;;25.60;60.80;;;;;;5119267;27;20062;-74
2021/06/09 09:53:17;;;;;;;13.00;11.70;;;25.60;59.70;;;;;;5121697;27;20047;-75
2021/06/09 09:56:08;;;;;;;16.40;11.63;;;25.70;59.30;;;;;;5116552;27;20041;-74
2021/06/09 09:58:52;;;;;;;13.50;12.13;;;25.80;59.60;;;;;;5113941;27;20063;-75
2021/06/09 10:01:24;;;;;;;14.77;13.27;;;26.00;60.40;;;;;;5115074;27;20519;-76
2021/06/09 10:03:55;;;;;;;13.85;12.50;;;26.10;57.20;;;;;;5113353;27;20035;-76
2021/06/09 10:06:30;;;;;;;14.82;13.43;;;26.20;58.20;;;;;;5115262;27;20054;-77
2021/06/09 10:09:05;;;;;;;13.40;12.00;;;26.20;57.80;;;;;;5123932;27;20084;-78
2021/06/09 10:11:33;;;;;;;14.00;12.60;;;26.00;56.70;;;;;;5126062;27;20416;-76
2021/06/09 10:13:59;;;;;;;14.73;13.32;;;25.90;59.50;;;;;;5126257;27;20035;-75
2021/06/09 10:16:33;;;;;;;13.65;12.32;;;25.80;57.60;;;;;;5123392;27;20035;-76
2021/06/09 10:19:10;;;;;;;15.90;14.40;;;25.80;57.90;;;;;;5124657;27;20046;-76
2021/06/09 10:21:48;;;;;;;15.38;13.93;;;25.80;55.20;;;;;;5119793;27;20051;-76
2021/06/09 10:24:18;;;;;;;13.60;12.30;;;25.60;57.00;;;;;;5108402;27;20402;-76
2021/06/09 10:26:58;;;;;;;14.95;13.65;;;25.40;61.00;;;;;;5110388;27;20568;-76
2021/06/09 10:29:31;;;;;;;14.77;13.30;;;25.30;61.30;;;;;;5127757;27;20058;-76
2021/06/09 10:32:10;;;;;;;17.13;15.52;;;25.30;65.00;;;;;;5124449;27;20119;-76
2021/06/09 10:34:38;;;;;;;16.08;14.52;;;25.50;66.10;;;;;;5126738;27;20257;-76
2021/06/09 10:37:10;;;;;;;15.80;14.30;;;25.80;65.70;;;;;;5124826;27;20039;-75
2021/06/09 10:39:38;;;;;;;18.48;16.77;;;26.00;62.50;;;;;;5121104;27;20049;-76
2021/06/09 10:42:10;;;;;;;16.92;15.32;;;26.20;60.30;;;;;;5124595;27;20034;-76
2021/06/09 10:44:39;;;;;;;18.77;16.92;;;26.30;62.20;;;;;;5112011;27;20047;-75
2021/06/09 10:47:22;;;;;;;17.55;15.95;;;26.40;58.60;;;;;;5110765;27;20035;-74
2021/06/09 10:49:48;;;;;;;17.08;15.55;;;26.20;60.00;;;;;;5136330;27;20027;-74
2021/06/09 10:52:14;;;;;;;17.60;15.90;;;26.20;59.30;;;;;;5105864;27;20042;-75
2021/06/09 10:54:41;;;;;;;16.23;14.75;;;26.30;63.20;;;;;;5137546;27;20444;-77
2021/06/09 10:57:09;;;;;;;18.25;16.52;;;26.50;59.40;;;;;;5123275;27;20031;-78
2021/06/09 10:59:35;;;;;;;20.23;18.38;;;26.60;58.50;;;;;;5118134;27;20039;-75
2021/06/09 11:02:13;;;;;;;18.42;16.65;;;26.60;56.00;;;;;;5104971;27;20042;-75
2021/06/09 11:04:43;;;;;;;16.45;15.05;;;26.40;55.80;;;;;;5130169;27;20109;-75
2021/06/09 11:07:34;;;;;;;18.48;16.80;;;26.30;57.70;;;;;;5111384;27;20082;-74
2021/06/09 11:10:14;;;;;;;18.17;16.67;;;26.20;57.70;;;;;;5104754;27;20442;-73
2021/06/09 11:12:48;;;;;;;19.08;17.38;;;26.30;56.60;;;;;;5135449;27;20039;-75
2021/06/09 11:15:23;;;;;;;18.35;16.75;;;26.10;56.10;;;;;;5112669;27;20039;-76
2021/06/09 11:17:53;;;;;;;18.30;16.60;;;26.10;58.50;;;;;;5133058;27;20039;-75
2021/06/09 11:20:20;;;;;;;17.58;15.95;;;26.20;57.40;;;;;;5122712;27;20049;-75
2021/06/09 11:22:50;;;;;;;17.77;16.17;;;26.40;59.30;;;;;;5121049;27;20142;-74
2021/06/09 11:25:18;;;;;;;;;;;26.50;56.90;;;;;;5124394;27;20033;-75
2021/06/09 11:27:58;;;;;;;16.45;15.05;;;26.70;56.60;;;;;;5122992;27;19972;-75
2021/06/09 11:30:24;;;;;;;16.25;14.75;;;26.90;58.60;;;;;;5136269;27;20070;-75
2021/06/09 11:32:52;;;;;;;18.08;16.48;;;27.00;59.20;;;;;;5138500;27;20039;-74
2021/06/09 11:35:24;;;;;;;17.58;15.88;;;27.10;55.50;;;;;;5121756;27;20050;-74
2021/06/09 11:38:14;;;;;;;16.70;15.13;;;27.30;56.20;;;;;;5122733;27;20045;-74
2021/06/09 11:40:59;;;;;;;15.68;14.23;;;27.40;56.30;;;;;;5105752;27;20051;-75
2021/06/09 11:43:27;;;;;;;15.88;14.38;;;27.40;58.00;;;;;;5124870;27;20401;-74
2021/06/09 11:46:05;;;;;;;16.48;15.02;;;27.40;53.80;;;;;;5128701;27;20031;-75
2021/06/09 11:48:33;;;;;;;16.65;15.07;;;27.20;54.90;;;;;;5120647;27;20042;-75
2021/06/09 11:51:19;;;;;;;16.67;15.18;;;27.10;55.30;;;;;;5116082;27;20035;-78
2021/06/09 11:53:47;;;;;;;16.85;15.35;;;27.10;55.20;;;;;;5122254;27;20401;-76
2021/06/09 11:56:43;;;;;;;16.75;14.98;;;27.10;55.30;;;;;;5120698;27;20035;-75
2021/06/09 11:59:28;;;;;;;14.32;12.93;;;27.20;52.80;;;;;;5122420;27;20382;-75
2021/06/09 12:01:58;;;;;;;15.90;13.43;;;27.30;57.80;;;;;;5117861;27;20034;-75
2021/06/09 12:04:36;;;;;;;14.73;13.43;;;27.50;54.80;;;;;;5126867;27;20043;-75
2021/06/09 12:07:08;;;;;;;17.45;15.68;;;27.60;50.00;;;;;;5132091;27;20039;-74
2021/06/09 12:09:43;;;;;;;14.55;13.20;;;27.60;49.00;;;;;;5137136;27;20035;-76
2021/06/09 12:12:26;;;;;;;15.27;13.85;;;27.60;53.50;;;;;;5121345;27;20034;-84
2021/06/09 12:14:55;;;;;;;15.68;14.27;;;27.60;53.00;;;;;;5144589;27;20031;-83
2021/06/09 12:17:21;;;;;;;13.85;12.68;;;27.70;52.70;;;;;;5102532;27;20043;-83
2021/06/09 12:20:12;;;;;;;15.60;14.10;;;27.70;51.90;;;;;;5121871;27;20125;-83
2021/06/09 12:22:54;;;;;;;16.83;15.40;;;27.80;54.00;;;;;;5120325;27;20598;-82
2021/06/09 12:25:31;;;;;;;14.80;13.50;;;28.00;53.50;;;;;;5140767;27;20047;-82
2021/06/09 12:28:06;;;;;;;12.65;11.20;;;28.00;54.40;;;;;;5147247;27;20098;-83
2021/06/09 12:30:53;;;;;;;13.15;11.85;;;27.90;54.90;;;;;;5123070;27;20579;-82
2021/06/09 12:33:19;;;;;;;12.65;11.55;;;27.70;54.50;;;;;;5119957;27;20526;-84
2021/06/09 12:35:46;;;;;;;15.00;13.60;;;27.40;57.70;;;;;;5122189;27;20486;-81
2021/06/09 12:38:12;;;;;;;14.60;13.30;;;27.00;56.90;;;;;;5127933;27;22071;-81
2021/06/09 12:40:41;;;;;;;13.88;12.52;;;26.80;58.40;;;;;;5126936;27;20074;-81
2021/06/09 12:43:12;;;;;;;12.95;11.82;;;26.70;55.80;;;;;;5116514;27;20038;-76
2021/06/09 12:45:41;;;;;;;13.95;12.70;;;26.70;57.30;;;;;;5124745;27;20144;-75
2021/06/09 12:48:17;;;;;;;15.57;14.18;;;26.60;57.40;;;;;;5115751;27;20141;-77
2021/06/09 12:50:54;;;;;;;17.23;14.63;;;26.60;54.70;;;;;;5107477;27;20047;-76
2021/06/09 12:53:23;;;;;;;14.45;13.25;;;26.70;56.10;;;;;;5096344;28;20175;-75
2021/06/09 12:55:54;;;;;;;14.00;12.50;;;26.90;60.50;;;;;;5125575;27;20059;-75
2021/06/09 12:58:24;;;;;;;15.80;14.30;;;27.20;57.50;;;;;;5122845;27;20024;-76